Saturno — CUFC7 — position and weather

sailwx.info

Track history (hours):
 
Tides and Currents Weather Stations Pressure Air Temp Water Temp Dewpoint Dewpoint Depression Visibility Wind Speed Wind Dir Waves Ship Positions

Saturno

Last reported at 2017-Nov-20 00:30 UTC. Time now 2017-Nov-20 11:58 UTC.
Position N 37°06' W 008°32'.

Length 21 m.

Type: Fishing. MMSI: 263402350.

Date/timePositionNaut miles runAvg speedWind from/ knotsBaromVisibWave heightAir tempDewpointWater temp
2017-Nov-20 00:30N 37°06' W 008°32'1 2.0
2017-Nov-19 23:47N 37°08' W 008°32'0 0.0
2017-Nov-19 23:29N 37°08' W 008°32'0 0.0
2017-Nov-19 22:48N 37°08' W 008°32'0 0.0
2017-Nov-19 22:14N 37°08' W 008°32'0 0.0
2017-Nov-19 22:00N 37°08' W 008°32'0 0.0
2017-Nov-19 19:42N 37°08' W 008°32'0 0.0
2017-Nov-19 19:18N 37°08' W 008°32'0 0.0
2017-Nov-19 17:36N 37°08' W 008°32'0 0.2
2017-Nov-19 17:30N 37°08' W 008°32'0 0.0
2017-Nov-19 16:54N 37°08' W 008°32'0 0.0
2017-Nov-19 16:30N 37°08' W 008°32'2 3.7
2017-Nov-19 16:00N 37°06' W 008°32'35 3.7
2017-Nov-19 06:36N 37°02' W 009°15'210.0
2017-Nov-19 06:26N 37°03' W 009°17'510.3
2017-Nov-19 06:00N 37°06' W 009°21'610.6
2017-Nov-19 05:27N 37°10' W 009°26'15 2.8
2017-Nov-19 00:07N 37°25' W 009°29'0 2.6
2017-Nov-19 00:00N 37°25' W 009°29'1 2.5
2017-Nov-18 23:30N 37°26' W 009°29'1 2.6
2017-Nov-18 23:00N 37°27' W 009°29'1 2.8
2017-Nov-18 22:30N 37°29' W 009°29'1 2.5
2017-Nov-18 22:00N 37°30' W 009°29'1 3.1
2017-Nov-18 21:30N 37°31' W 009°29'1 0.7
2017-Nov-18 20:45N 37°31' W 009°29'1 2.6
2017-Nov-18 20:30N 37°31' W 009°29'1 2.7
2017-Nov-18 20:00N 37°29' W 009°29'1 2.7
2017-Nov-18 19:30N 37°28' W 009°29'1 2.6
2017-Nov-18 19:01N 37°27' W 009°29'1 2.6
2017-Nov-18 18:31N 37°25' W 009°29'1 2.6
2017-Nov-18 17:57N 37°24' W 009°29'1 2.6
2017-Nov-18 17:30N 37°23' W 009°29'1 2.6
2017-Nov-18 17:00N 37°22' W 009°29'1 2.7
2017-Nov-18 16:30N 37°20' W 009°30'1 2.7
2017-Nov-18 16:01N 37°19' W 009°30'10 1.2
2017-Nov-18 07:52N 37°29' W 009°29'4 4.1
2017-Nov-18 06:59N 37°32' W 009°29'1 1.6
2017-Nov-18 06:27N 37°32' W 009°29'1 1.2
2017-Nov-18 05:55N 37°31' W 009°29'2 2.6
2017-Nov-18 05:19N 37°29' W 009°29'1 2.7
2017-Nov-18 04:58N 37°28' W 009°29'1 2.6
2017-Nov-18 04:30N 37°27' W 009°29'1 2.7
2017-Nov-18 03:59N 37°26' W 009°29'5 2.7
2017-Nov-18 02:04N 37°21' W 009°30'0 2.7
2017-Nov-18 01:57N 37°20' W 009°30'1 2.5
2017-Nov-18 01:30N 37°19' W 009°30'3 4.7
2017-Nov-18 00:57N 37°17' W 009°30'3 3.2
2017-Nov-17 23:58N 37°20' W 009°30'0 1.1
2017-Nov-17 23:31N 37°19' W 009°30'28 7.0
2017-Nov-17 19:31N 36°55' W 009°13'010.3
2017-Nov-17 19:29N 36°54' W 009°13'510.3
2017-Nov-17 19:00N 36°50' W 009°09'30 2.1
2017-Nov-17 05:05N 37°02' W 008°35'2 9.1
2017-Nov-17 04:51N 37°04' W 008°34'3 8.6
2017-Nov-17 04:27N 37°07' W 008°32'1 0.9
2017-Nov-17 03:22N 37°08' W 008°32'0 0.0
2017-Nov-17 01:46N 37°08' W 008°32'0 0.0
2017-Nov-17 01:28N 37°08' W 008°32'0 0.0
2017-Nov-17 00:06N 37°08' W 008°32'0 0.0
2017-Nov-16 23:58N 37°08' W 008°32'0 0.0
2017-Nov-16 23:30N 37°08' W 008°32'0 0.0
2017-Nov-16 22:54N 37°08' W 008°32'0 0.0
2017-Nov-16 22:30N 37°08' W 008°32'0 0.0
2017-Nov-16 21:54N 37°08' W 008°32'0 0.0
2017-Nov-16 21:30N 37°08' W 008°32'0 0.0
2017-Nov-16 20:42N 37°08' W 008°32'0 0.0
2017-Nov-16 20:18N 37°08' W 008°32'0 0.0
2017-Nov-16 19:48N 37°08' W 008°32'2 7.8
2017-Nov-16 19:31N 37°06' W 008°32'18 2.0
2017-Nov-16 10:36N 36°50' W 008°44'0 3.0
2017-Nov-16 10:26N 36°50' W 008°44'1 3.0
2017-Nov-16 10:00N 36°50' W 008°42'2 3.0
2017-Nov-16 09:28N 36°49' W 008°40'1 2.7
2017-Nov-16 09:01N 36°49' W 008°39'2 3.0
2017-Nov-16 08:25N 36°49' W 008°37'6 2.9
2017-Nov-16 06:15N 36°53' W 008°30'0 1.6
2017-Nov-16 06:00N 36°53' W 008°30'2 3.0
2017-Nov-16 05:30N 36°52' W 008°28'2 3.0
2017-Nov-16 04:44N 36°52' W 008°25'1 0.7
2017-Nov-16 03:52N 36°52' W 008°25'1 2.9
2017-Nov-16 03:30N 36°52' W 008°26'1 2.9
2017-Nov-16 03:00N 36°52' W 008°28'1 2.9
2017-Nov-16 02:30N 36°53' W 008°29'0 0.7
2017-Nov-16 01:59N 36°53' W 008°30'2 3.0
2017-Nov-16 01:29N 36°52' W 008°28'2 3.1
2017-Nov-16 00:56N 36°52' W 008°26'1 3.1
2017-Nov-16 00:29N 36°52' W 008°24'1 1.5
2017-Nov-15 23:57N 36°51' W 008°23'1 2.9
2017-Nov-15 23:30N 36°52' W 008°25'1 2.9
2017-Nov-15 23:00N 36°52' W 008°26'1 2.9
2017-Nov-15 22:30N 36°52' W 008°28'2 3.4
2017-Nov-15 21:59N 36°52' W 008°31'2 4.6
2017-Nov-15 21:27N 36°51' W 008°33'1 2.6
2017-Nov-15 20:57N 36°49' W 008°32'3 1.1
2017-Nov-15 18:29N 36°51' W 008°34'10 0.8
2017-Nov-15 05:31N 37°02' W 008°35'6 9.5
2017-Nov-15 04:55N 37°06' W 008°32'2 4.1
2017-Nov-15 04:30N 37°08' W 008°32'0 0.0
2017-Nov-15 03:54N 37°08' W 008°32'0 0.0
2017-Nov-15 03:30N 37°08' W 008°32'0 0.0
2017-Nov-15 02:58N 37°08' W 008°32'0 0.0
2017-Nov-15 02:30N 37°08' W 008°32'0 0.0
2017-Nov-15 01:53N 37°08' W 008°32'0 0.0
2017-Nov-15 01:30N 37°08' W 008°32'0 0.0
2017-Nov-15 00:58N 37°08' W 008°32'0 0.0
2017-Nov-15 00:30N 37°08' W 008°32'0 0.0
2017-Nov-14 23:58N 37°08' W 008°32'0 0.0
2017-Nov-14 23:30N 37°08' W 008°32'0 0.0
2017-Nov-14 22:58N 37°08' W 008°32'0 0.0
2017-Nov-14 22:30N 37°08' W 008°32'0 0.0
2017-Nov-14 22:00N 37°08' W 008°32'0 0.0
2017-Nov-14 21:30N 37°08' W 008°32'0 0.0
2017-Nov-14 21:00N 37°08' W 008°32'0 0.0
2017-Nov-14 20:30N 37°08' W 008°32'0 0.0
2017-Nov-14 19:58N 37°08' W 008°32'0 0.0
2017-Nov-14 19:30N 37°08' W 008°32'0 0.0
2017-Nov-14 18:59N 37°08' W 008°32'0 0.0
2017-Nov-14 18:30N 37°08' W 008°32'0 0.0
2017-Nov-14 17:59N 37°08' W 008°32'0 0.0
2017-Nov-14 17:30N 37°08' W 008°32'0 0.0
2017-Nov-14 17:00N 37°08' W 008°32'0 0.0
2017-Nov-14 16:28N 37°08' W 008°32'0 0.0
2017-Nov-14 15:58N 37°08' W 008°32'0 0.0
2017-Nov-14 15:30N 37°08' W 008°32'0 0.0
2017-Nov-14 15:00N 37°08' W 008°32'0 0.0
2017-Nov-14 14:30N 37°08' W 008°32'0 0.0
2017-Nov-14 14:00N 37°08' W 008°32'0 0.0
2017-Nov-14 13:30N 37°08' W 008°32'0 0.0
2017-Nov-14 13:00N 37°08' W 008°32'0 0.0
2017-Nov-14 12:30N 37°08' W 008°32'0 0.0
2017-Nov-14 12:00N 37°08' W 008°32'0 0.0
2017-Nov-14 11:30N 37°08' W 008°32'0 0.0
2017-Nov-14 11:00N 37°08' W 008°32'0 0.0
2017-Nov-14 10:30N 37°08' W 008°32'0 0.0
2017-Nov-14 10:00N 37°08' W 008°32'0 0.0
2017-Nov-14 09:30N 37°08' W 008°32'0 0.0
2017-Nov-14 09:00N 37°08' W 008°32'0 0.0
2017-Nov-14 08:30N 37°08' W 008°32'0 0.0
2017-Nov-14 08:00N 37°08' W 008°32'0 0.0
2017-Nov-14 07:30N 37°08' W 008°32'0 0.0
2017-Nov-14 06:55N 37°08' W 008°32'0 0.0
2017-Nov-14 06:23N 37°08' W 008°32'0 0.0
2017-Nov-14 06:00N 37°08' W 008°32'0 0.0
2017-Nov-14 05:30N 37°08' W 008°32'0 0.0
2017-Nov-14 05:00N 37°08' W 008°32'0 0.0
2017-Nov-14 04:30N 37°08' W 008°32'0 0.0
2017-Nov-14 04:00N 37°08' W 008°32'0 0.0
2017-Nov-14 03:30N 37°08' W 008°32'0 0.0
2017-Nov-14 02:57N 37°08' W 008°32'0 0.0
2017-Nov-14 02:30N 37°08' W 008°32'0 0.0
2017-Nov-14 01:54N 37°08' W 008°32'0 0.0
2017-Nov-14 01:30N 37°08' W 008°32'0 0.0
2017-Nov-14 00:54N 37°08' W 008°32'0 0.0
2017-Nov-14 00:28N 37°08' W 008°32'0 0.0
2017-Nov-13 23:54N 37°08' W 008°32'0 0.0
2017-Nov-13 23:30N 37°08' W 008°32'0 0.0
2017-Nov-13 22:58N 37°08' W 008°32'0 0.0
2017-Nov-13 22:30N 37°08' W 008°32'0 0.0
2017-Nov-13 21:54N 37°08' W 008°32'0 0.0
2017-Nov-13 02:00N 37°08' W 008°32'0 0.0
2017-Nov-13 01:30N 37°08' W 008°32'0 0.0
2017-Nov-13 00:54N 37°08' W 008°32'0 0.0
2017-Nov-13 00:30N 37°08' W 008°32'0 0.0
2017-Nov-13 00:00N 37°08' W 008°32'0 0.0
2017-Nov-12 23:30N 37°08' W 008°32'0 0.0
2017-Nov-12 23:00N 37°08' W 008°32'0 0.0
2017-Nov-12 22:30N 37°08' W 008°32'0 0.0
2017-Nov-12 22:00N 37°08' W 008°32'0 0.0
2017-Nov-12 21:30N 37°08' W 008°32'0 0.0
2017-Nov-12 20:58N 37°08' W 008°32'0 0.0
2017-Nov-12 20:30N 37°08' W 008°32'0 0.0
2017-Nov-12 20:00N 37°08' W 008°32'0 0.0
2017-Nov-12 19:30N 37°08' W 008°32'0 0.0
2017-Nov-12 18:58N 37°08' W 008°32'0 0.0
2017-Nov-12 18:30N 37°08' W 008°32'0 0.0
2017-Nov-12 18:00N 37°08' W 008°32'0 0.0
2017-Nov-12 17:30N 37°08' W 008°32'0 0.0
2017-Nov-12 16:58N 37°08' W 008°32'0 0.0
2017-Nov-12 16:30N 37°08' W 008°32'0 0.0
2017-Nov-12 16:00N 37°08' W 008°32'0 0.0
2017-Nov-12 15:30N 37°08' W 008°32'0 0.0
2017-Nov-12 15:00N 37°08' W 008°32'0 0.0
2017-Nov-12 14:30N 37°08' W 008°32'0 0.0
2017-Nov-12 13:54N 37°08' W 008°32'0 0.0
2017-Nov-12 13:30N 37°08' W 008°32'0 0.0
2017-Nov-12 12:58N 37°08' W 008°32'0 0.0
2017-Nov-12 12:30N 37°08' W 008°32'0 0.0
2017-Nov-12 12:00N 37°08' W 008°32'0 0.0
2017-Nov-12 11:30N 37°08' W 008°32'0 0.0
2017-Nov-12 10:54N 37°08' W 008°32'0 0.0
2017-Nov-12 10:30N 37°08' W 008°32'0 0.0
2017-Nov-12 10:00N 37°08' W 008°32'0 0.0
2017-Nov-12 09:30N 37°08' W 008°32'0 0.0
2017-Nov-12 09:00N 37°08' W 008°32'0 0.0
2017-Nov-12 08:30N 37°08' W 008°32'0 0.0
2017-Nov-12 08:00N 37°08' W 008°32'0 0.0
2017-Nov-12 07:28N 37°08' W 008°32'0 0.0
2017-Nov-12 07:00N 37°08' W 008°32'0 0.0
2017-Nov-12 06:18N 37°08' W 008°32'0 0.0
2017-Nov-12 06:00N 37°08' W 008°32'0 0.0
2017-Nov-12 05:30N 37°08' W 008°32'0 0.0
2017-Nov-12 05:00N 37°08' W 008°32'0 0.0
2017-Nov-12 04:30N 37°08' W 008°32'0 0.0
2017-Nov-12 03:58N 37°08' W 008°32'0 0.0
2017-Nov-12 03:30N 37°08' W 008°32'0 0.0
2017-Nov-12 02:59N 37°08' W 008°32'0 0.0
2017-Nov-12 02:18N 37°08' W 008°32'0 0.0
2017-Nov-12 02:00N 37°08' W 008°32'0 0.0
2017-Nov-12 01:30N 37°08' W 008°32'0 0.0
2017-Nov-12 00:58N 37°08' W 008°32'0 0.0
2017-Nov-12 00:30N 37°08' W 008°32'0 0.0
2017-Nov-12 00:00N 37°08' W 008°32'0 0.0
2017-Nov-11 23:30N 37°08' W 008°32'0 0.0
2017-Nov-11 22:58N 37°08' W 008°32'0 0.0
2017-Nov-11 22:23N 37°08' W 008°32'0 0.0
2017-Nov-11 22:00N 37°08' W 008°32'0 0.0
2017-Nov-11 21:30N 37°08' W 008°32'0 0.0
2017-Nov-11 21:00N 37°08' W 008°32'0 0.0
2017-Nov-11 20:24N 37°08' W 008°32'0 0.0
2017-Nov-11 19:53N 37°08' W 008°32'0 0.0
2017-Nov-11 19:24N 37°08' W 008°32'0 0.0
2017-Nov-11 18:48N 37°08' W 008°32'0 0.0
2017-Nov-11 18:30N 37°08' W 008°32'0 0.0
2017-Nov-11 17:18N 37°08' W 008°32'0 0.0
2017-Nov-11 16:47N 37°08' W 008°32'0 0.0
2017-Nov-11 16:24N 37°08' W 008°32'0 0.0
2017-Nov-11 16:00N 37°08' W 008°32'0 0.0
2017-Nov-11 15:30N 37°08' W 008°32'0 0.0
2017-Nov-11 14:56N 37°08' W 008°32'0 0.0
2017-Nov-11 14:30N 37°08' W 008°32'0 0.0
2017-Nov-11 14:00N 37°08' W 008°32'0 0.0
2017-Nov-11 13:30N 37°08' W 008°32'0 0.0
2017-Nov-11 13:00N 37°08' W 008°32'0 0.0
2017-Nov-11 12:30N 37°08' W 008°32'0 0.0
2017-Nov-11 11:59N 37°08' W 008°32'0 0.0
2017-Nov-11 11:30N 37°08' W 008°32'0 0.0
2017-Nov-11 11:00N 37°08' W 008°32'0 0.0
2017-Nov-11 10:30N 37°08' W 008°32'0 0.0
2017-Nov-11 10:00N 37°08' W 008°32'0 0.0
2017-Nov-11 09:29N 37°08' W 008°32'0 0.0
2017-Nov-11 08:59N 37°08' W 008°32'0 0.0
2017-Nov-11 08:30N 37°08' W 008°32'0 0.0
2017-Nov-11 08:00N 37°08' W 008°32'0 0.0
2017-Nov-11 07:30N 37°08' W 008°32'0 0.0
2017-Nov-11 06:54N 37°08' W 008°32'0 0.0
2017-Nov-11 06:30N 37°08' W 008°32'0 0.0
2017-Nov-11 05:58N 37°08' W 008°32'0 0.0
2017-Nov-11 05:30N 37°08' W 008°32'0 0.0
2017-Nov-11 04:54N 37°08' W 008°32'0 0.0
2017-Nov-11 04:18N 37°08' W 008°32'0 0.0
2017-Nov-11 03:50N 37°08' W 008°32'0 0.0
2017-Nov-11 03:30N 37°08' W 008°32'0 0.0
2017-Nov-11 02:53N 37°08' W 008°32'0 0.0
2017-Nov-11 02:22N 37°08' W 008°32'0 0.0
2017-Nov-11 01:58N 37°08' W 008°32'0 0.0
2017-Nov-11 01:30N 37°08' W 008°32'0 0.0
2017-Nov-11 01:00N 37°08' W 008°32'0 0.0
2017-Nov-11 00:30N 37°08' W 008°32'0 0.0
2017-Nov-11 00:00N 37°08' W 008°32'0 0.0
2017-Nov-10 23:29N 37°08' W 008°32'0 0.0
2017-Nov-10 22:54N 37°08' W 008°32'0 0.0
2017-Nov-10 22:30N 37°08' W 008°32'0 0.0
2017-Nov-10 22:00N 37°08' W 008°32'0 0.0
2017-Nov-10 21:30N 37°08' W 008°32'0 0.0
2017-Nov-10 21:00N 37°08' W 008°32'0 0.0
2017-Nov-10 20:30N 37°08' W 008°32'0 0.0
2017-Nov-10 20:00N 37°08' W 008°32'0 0.0
2017-Nov-10 19:30N 37°08' W 008°32'0 0.0
2017-Nov-10 19:00N 37°08' W 008°32'0 0.0
2017-Nov-10 18:29N 37°08' W 008°32'0 0.0
2017-Nov-10 17:58N 37°08' W 008°32'0 0.0
2017-Nov-10 17:30N 37°08' W 008°32'0 0.0
2017-Nov-10 16:58N 37°08' W 008°32'0 0.0
2017-Nov-10 16:29N 37°08' W 008°32'0 0.0
2017-Nov-10 16:00N 37°08' W 008°32'0 0.0
2017-Nov-10 15:30N 37°08' W 008°32'0 0.0
2017-Nov-10 15:00N 37°08' W 008°32'0 0.0
2017-Nov-10 14:30N 37°08' W 008°32'0 0.0
2017-Nov-10 13:58N 37°08' W 008°32'0 0.0
2017-Nov-10 13:18N 37°08' W 008°32'0 0.0
2017-Nov-10 13:00N 37°08' W 008°32'0 0.0
2017-Nov-10 12:30N 37°08' W 008°32'0 0.0
2017-Nov-10 12:00N 37°08' W 008°32'0 0.0
2017-Nov-10 11:30N 37°08' W 008°32'0 0.0
2017-Nov-10 11:00N 37°08' W 008°32'0 0.0
2017-Nov-10 10:23N 37°08' W 008°32'0 0.0
2017-Nov-10 09:54N 37°08' W 008°32'0 0.0
2017-Nov-10 09:30N 37°08' W 008°32'0 0.0
2017-Nov-10 08:54N 37°08' W 008°32'0 0.0
2017-Nov-10 08:30N 37°08' W 008°32'0 0.0
2017-Nov-10 07:59N 37°08' W 008°32'0 0.0
2017-Nov-10 07:30N 37°08' W 008°32'0 0.0
2017-Nov-10 06:56N 37°08' W 008°32'0 0.0
2017-Nov-10 06:30N 37°08' W 008°32'0 0.0
2017-Nov-10 06:00N 37°08' W 008°32'0 0.0
2017-Nov-10 05:30N 37°08' W 008°32'0 0.0
2017-Nov-10 04:48N 37°08' W 008°32'0 0.0
2017-Nov-10 04:30N 37°08' W 008°32'0 0.0
2017-Nov-10 04:00N 37°08' W 008°32'0 0.0
2017-Nov-10 03:30N 37°08' W 008°32'0 0.0
2017-Nov-10 03:00N 37°08' W 008°32'0 0.0
2017-Nov-10 02:30N 37°08' W 008°32'0 0.0
2017-Nov-10 01:54N 37°08' W 008°32'0 0.0
2017-Nov-10 01:28N 37°08' W 008°32'0 0.0
2017-Nov-10 01:00N 37°08' W 008°32'0 0.0
2017-Nov-10 00:30N 37°08' W 008°32'  
Track history (hours):
 
Tides and Currents Weather Stations Pressure Air Temp Water Temp Dewpoint Dewpoint Depression Visibility Wind Speed Wind Dir Waves Ship Positions

Saturno

Last reported at 2017-Nov-20 00:30 UTC. Time now 2017-Nov-20 11:58 UTC.
Position N 37°06' W 008°32'.

Length 21 m.

Type: Fishing. MMSI: 263402350.

Date/timePositionNaut miles runAvg speedWind from/ knotsBaromVisibWave heightAir tempDewpointWater temp
2017-Nov-20 00:30N 37°06' W 008°32'1 2.0
2017-Nov-19 23:47N 37°08' W 008°32'0 0.0
2017-Nov-19 23:29N 37°08' W 008°32'0 0.0
2017-Nov-19 22:48N 37°08' W 008°32'0 0.0
2017-Nov-19 22:14N 37°08' W 008°32'0 0.0
2017-Nov-19 22:00N 37°08' W 008°32'0 0.0
2017-Nov-19 19:42N 37°08' W 008°32'0 0.0
2017-Nov-19 19:18N 37°08' W 008°32'0 0.0
2017-Nov-19 17:36N 37°08' W 008°32'0 0.2
2017-Nov-19 17:30N 37°08' W 008°32'0 0.0
2017-Nov-19 16:54N 37°08' W 008°32'0 0.0
2017-Nov-19 16:30N 37°08' W 008°32'2 3.7
2017-Nov-19 16:00N 37°06' W 008°32'35 3.7
2017-Nov-19 06:36N 37°02' W 009°15'210.0
2017-Nov-19 06:26N 37°03' W 009°17'510.3
2017-Nov-19 06:00N 37°06' W 009°21'610.6
2017-Nov-19 05:27N 37°10' W 009°26'15 2.8
2017-Nov-19 00:07N 37°25' W 009°29'0 2.6
2017-Nov-19 00:00N 37°25' W 009°29'1 2.5
2017-Nov-18 23:30N 37°26' W 009°29'1 2.6
2017-Nov-18 23:00N 37°27' W 009°29'1 2.8
2017-Nov-18 22:30N 37°29' W 009°29'1 2.5
2017-Nov-18 22:00N 37°30' W 009°29'1 3.1
2017-Nov-18 21:30N 37°31' W 009°29'1 0.7
2017-Nov-18 20:45N 37°31' W 009°29'1 2.6
2017-Nov-18 20:30N 37°31' W 009°29'1 2.7
2017-Nov-18 20:00N 37°29' W 009°29'1 2.7
2017-Nov-18 19:30N 37°28' W 009°29'1 2.6
2017-Nov-18 19:01N 37°27' W 009°29'1 2.6
2017-Nov-18 18:31N 37°25' W 009°29'1 2.6
2017-Nov-18 17:57N 37°24' W 009°29'1 2.6
2017-Nov-18 17:30N 37°23' W 009°29'1 2.6
2017-Nov-18 17:00N 37°22' W 009°29'1 2.7
2017-Nov-18 16:30N 37°20' W 009°30'1 2.7
2017-Nov-18 16:01N 37°19' W 009°30'10 1.2
2017-Nov-18 07:52N 37°29' W 009°29'4 4.1
2017-Nov-18 06:59N 37°32' W 009°29'1 1.6
2017-Nov-18 06:27N 37°32' W 009°29'1 1.2
2017-Nov-18 05:55N 37°31' W 009°29'2 2.6
2017-Nov-18 05:19N 37°29' W 009°29'1 2.7
2017-Nov-18 04:58N 37°28' W 009°29'1 2.6
2017-Nov-18 04:30N 37°27' W 009°29'1 2.7
2017-Nov-18 03:59N 37°26' W 009°29'5 2.7
2017-Nov-18 02:04N 37°21' W 009°30'0 2.7
2017-Nov-18 01:57N 37°20' W 009°30'1 2.5
2017-Nov-18 01:30N 37°19' W 009°30'3 4.7
2017-Nov-18 00:57N 37°17' W 009°30'3 3.2
2017-Nov-17 23:58N 37°20' W 009°30'0 1.1
2017-Nov-17 23:31N 37°19' W 009°30'28 7.0
2017-Nov-17 19:31N 36°55' W 009°13'010.3
2017-Nov-17 19:29N 36°54' W 009°13'510.3
2017-Nov-17 19:00N 36°50' W 009°09'30 2.1
2017-Nov-17 05:05N 37°02' W 008°35'2 9.1
2017-Nov-17 04:51N 37°04' W 008°34'3 8.6
2017-Nov-17 04:27N 37°07' W 008°32'1 0.9
2017-Nov-17 03:22N 37°08' W 008°32'0 0.0
2017-Nov-17 01:46N 37°08' W 008°32'0 0.0
2017-Nov-17 01:28N 37°08' W 008°32'0 0.0
2017-Nov-17 00:06N 37°08' W 008°32'0 0.0
2017-Nov-16 23:58N 37°08' W 008°32'0 0.0
2017-Nov-16 23:30N 37°08' W 008°32'0 0.0
2017-Nov-16 22:54N 37°08' W 008°32'0 0.0
2017-Nov-16 22:30N 37°08' W 008°32'0 0.0
2017-Nov-16 21:54N 37°08' W 008°32'0 0.0
2017-Nov-16 21:30N 37°08' W 008°32'0 0.0
2017-Nov-16 20:42N 37°08' W 008°32'0 0.0
2017-Nov-16 20:18N 37°08' W 008°32'0 0.0
2017-Nov-16 19:48N 37°08' W 008°32'2 7.8
2017-Nov-16 19:31N 37°06' W 008°32'18 2.0
2017-Nov-16 10:36N 36°50' W 008°44'0 3.0
2017-Nov-16 10:26N 36°50' W 008°44'1 3.0
2017-Nov-16 10:00N 36°50' W 008°42'2 3.0
2017-Nov-16 09:28N 36°49' W 008°40'1 2.7
2017-Nov-16 09:01N 36°49' W 008°39'2 3.0
2017-Nov-16 08:25N 36°49' W 008°37'6 2.9
2017-Nov-16 06:15N 36°53' W 008°30'0 1.6
2017-Nov-16 06:00N 36°53' W 008°30'2 3.0
2017-Nov-16 05:30N 36°52' W 008°28'2 3.0
2017-Nov-16 04:44N 36°52' W 008°25'1 0.7
2017-Nov-16 03:52N 36°52' W 008°25'1 2.9
2017-Nov-16 03:30N 36°52' W 008°26'1 2.9
2017-Nov-16 03:00N 36°52' W 008°28'1 2.9
2017-Nov-16 02:30N 36°53' W 008°29'0 0.7
2017-Nov-16 01:59N 36°53' W 008°30'2 3.0
2017-Nov-16 01:29N 36°52' W 008°28'2 3.1
2017-Nov-16 00:56N 36°52' W 008°26'1 3.1
2017-Nov-16 00:29N 36°52' W 008°24'1 1.5
2017-Nov-15 23:57N 36°51' W 008°23'1 2.9
2017-Nov-15 23:30N 36°52' W 008°25'1 2.9
2017-Nov-15 23:00N 36°52' W 008°26'1 2.9
2017-Nov-15 22:30N 36°52' W 008°28'2 3.4
2017-Nov-15 21:59N 36°52' W 008°31'2 4.6
2017-Nov-15 21:27N 36°51' W 008°33'1 2.6
2017-Nov-15 20:57N 36°49' W 008°32'3 1.1
2017-Nov-15 18:29N 36°51' W 008°34'10 0.8
2017-Nov-15 05:31N 37°02' W 008°35'6 9.5
2017-Nov-15 04:55N 37°06' W 008°32'2 4.1
2017-Nov-15 04:30N 37°08' W 008°32'0 0.0
2017-Nov-15 03:54N 37°08' W 008°32'0 0.0
2017-Nov-15 03:30N 37°08' W 008°32'0 0.0
2017-Nov-15 02:58N 37°08' W 008°32'0 0.0
2017-Nov-15 02:30N 37°08' W 008°32'0 0.0
2017-Nov-15 01:53N 37°08' W 008°32'0 0.0
2017-Nov-15 01:30N 37°08' W 008°32'0 0.0
2017-Nov-15 00:58N 37°08' W 008°32'0 0.0
2017-Nov-15 00:30N 37°08' W 008°32'0 0.0
2017-Nov-14 23:58N 37°08' W 008°32'0 0.0
2017-Nov-14 23:30N 37°08' W 008°32'0 0.0
2017-Nov-14 22:58N 37°08' W 008°32'0 0.0
2017-Nov-14 22:30N 37°08' W 008°32'0 0.0
2017-Nov-14 22:00N 37°08' W 008°32'0 0.0
2017-Nov-14 21:30N 37°08' W 008°32'0 0.0
2017-Nov-14 21:00N 37°08' W 008°32'0 0.0
2017-Nov-14 20:30N 37°08' W 008°32'0 0.0
2017-Nov-14 19:58N 37°08' W 008°32'0 0.0
2017-Nov-14 19:30N 37°08' W 008°32'0 0.0
2017-Nov-14 18:59N 37°08' W 008°32'0 0.0
2017-Nov-14 18:30N 37°08' W 008°32'0 0.0
2017-Nov-14 17:59N 37°08' W 008°32'0 0.0
2017-Nov-14 17:30N 37°08' W 008°32'0 0.0
2017-Nov-14 17:00N 37°08' W 008°32'0 0.0
2017-Nov-14 16:28N 37°08' W 008°32'0 0.0
2017-Nov-14 15:58N 37°08' W 008°32'0 0.0
2017-Nov-14 15:30N 37°08' W 008°32'0 0.0
2017-Nov-14 15:00N 37°08' W 008°32'0 0.0
2017-Nov-14 14:30N 37°08' W 008°32'0 0.0
2017-Nov-14 14:00N 37°08' W 008°32'0 0.0
2017-Nov-14 13:30N 37°08' W 008°32'0 0.0
2017-Nov-14 13:00N 37°08' W 008°32'0 0.0
2017-Nov-14 12:30N 37°08' W 008°32'0 0.0
2017-Nov-14 12:00N 37°08' W 008°32'0 0.0
2017-Nov-14 11:30N 37°08' W 008°32'0 0.0
2017-Nov-14 11:00N 37°08' W 008°32'0 0.0
2017-Nov-14 10:30N 37°08' W 008°32'0 0.0
2017-Nov-14 10:00N 37°08' W 008°32'0 0.0
2017-Nov-14 09:30N 37°08' W 008°32'0 0.0
2017-Nov-14 09:00N 37°08' W 008°32'0 0.0
2017-Nov-14 08:30N 37°08' W 008°32'0 0.0
2017-Nov-14 08:00N 37°08' W 008°32'0 0.0
2017-Nov-14 07:30N 37°08' W 008°32'0 0.0
2017-Nov-14 06:55N 37°08' W 008°32'0 0.0
2017-Nov-14 06:23N 37°08' W 008°32'0 0.0
2017-Nov-14 06:00N 37°08' W 008°32'0 0.0
2017-Nov-14 05:30N 37°08' W 008°32'0 0.0
2017-Nov-14 05:00N 37°08' W 008°32'0 0.0
2017-Nov-14 04:30N 37°08' W 008°32'0 0.0
2017-Nov-14 04:00N 37°08' W 008°32'0 0.0
2017-Nov-14 03:30N 37°08' W 008°32'0 0.0
2017-Nov-14 02:57N 37°08' W 008°32'0 0.0
2017-Nov-14 02:30N 37°08' W 008°32'0 0.0
2017-Nov-14 01:54N 37°08' W 008°32'0 0.0
2017-Nov-14 01:30N 37°08' W 008°32'0 0.0
2017-Nov-14 00:54N 37°08' W 008°32'0 0.0
2017-Nov-14 00:28N 37°08' W 008°32'0 0.0
2017-Nov-13 23:54N 37°08' W 008°32'0 0.0
2017-Nov-13 23:30N 37°08' W 008°32'0 0.0
2017-Nov-13 22:58N 37°08' W 008°32'0 0.0
2017-Nov-13 22:30N 37°08' W 008°32'0 0.0
2017-Nov-13 21:54N 37°08' W 008°32'0 0.0
2017-Nov-13 02:00N 37°08' W 008°32'0 0.0
2017-Nov-13 01:30N 37°08' W 008°32'0 0.0
2017-Nov-13 00:54N 37°08' W 008°32'0 0.0
2017-Nov-13 00:30N 37°08' W 008°32'0 0.0
2017-Nov-13 00:00N 37°08' W 008°32'0 0.0
2017-Nov-12 23:30N 37°08' W 008°32'0 0.0
2017-Nov-12 23:00N 37°08' W 008°32'0 0.0
2017-Nov-12 22:30N 37°08' W 008°32'0 0.0
2017-Nov-12 22:00N 37°08' W 008°32'0 0.0
2017-Nov-12 21:30N 37°08' W 008°32'0 0.0
2017-Nov-12 20:58N 37°08' W 008°32'0 0.0
2017-Nov-12 20:30N 37°08' W 008°32'0 0.0
2017-Nov-12 20:00N 37°08' W 008°32'0 0.0
2017-Nov-12 19:30N 37°08' W 008°32'0 0.0
2017-Nov-12 18:58N 37°08' W 008°32'0 0.0
2017-Nov-12 18:30N 37°08' W 008°32'0 0.0
2017-Nov-12 18:00N 37°08' W 008°32'0 0.0
2017-Nov-12 17:30N 37°08' W 008°32'0 0.0
2017-Nov-12 16:58N 37°08' W 008°32'0 0.0
2017-Nov-12 16:30N 37°08' W 008°32'0 0.0
2017-Nov-12 16:00N 37°08' W 008°32'0 0.0
2017-Nov-12 15:30N 37°08' W 008°32'0 0.0
2017-Nov-12 15:00N 37°08' W 008°32'0 0.0
2017-Nov-12 14:30N 37°08' W 008°32'0 0.0
2017-Nov-12 13:54N 37°08' W 008°32'0 0.0
2017-Nov-12 13:30N 37°08' W 008°32'0 0.0
2017-Nov-12 12:58N 37°08' W 008°32'0 0.0
2017-Nov-12 12:30N 37°08' W 008°32'0 0.0
2017-Nov-12 12:00N 37°08' W 008°32'0 0.0
2017-Nov-12 11:30N 37°08' W 008°32'0 0.0
2017-Nov-12 10:54N 37°08' W 008°32'0 0.0
2017-Nov-12 10:30N 37°08' W 008°32'0 0.0
2017-Nov-12 10:00N 37°08' W 008°32'0 0.0
2017-Nov-12 09:30N 37°08' W 008°32'0 0.0
2017-Nov-12 09:00N 37°08' W 008°32'0 0.0
2017-Nov-12 08:30N 37°08' W 008°32'0 0.0
2017-Nov-12 08:00N 37°08' W 008°32'0 0.0
2017-Nov-12 07:28N 37°08' W 008°32'0 0.0
2017-Nov-12 07:00N 37°08' W 008°32'0 0.0
2017-Nov-12 06:18N 37°08' W 008°32'0 0.0
2017-Nov-12 06:00N 37°08' W 008°32'0 0.0
2017-Nov-12 05:30N 37°08' W 008°32'0 0.0
2017-Nov-12 05:00N 37°08' W 008°32'0 0.0
2017-Nov-12 04:30N 37°08' W 008°32'0 0.0
2017-Nov-12 03:58N 37°08' W 008°32'0 0.0
2017-Nov-12 03:30N 37°08' W 008°32'0 0.0
2017-Nov-12 02:59N 37°08' W 008°32'0 0.0
2017-Nov-12 02:18N 37°08' W 008°32'0 0.0
2017-Nov-12 02:00N 37°08' W 008°32'0 0.0
2017-Nov-12 01:30N 37°08' W 008°32'0 0.0
2017-Nov-12 00:58N 37°08' W 008°32'0 0.0
2017-Nov-12 00:30N 37°08' W 008°32'0 0.0
2017-Nov-12 00:00N 37°08' W 008°32'0 0.0
2017-Nov-11 23:30N 37°08' W 008°32'0 0.0
2017-Nov-11 22:58N 37°08' W 008°32'0 0.0
2017-Nov-11 22:23N 37°08' W 008°32'0 0.0
2017-Nov-11 22:00N 37°08' W 008°32'0 0.0
2017-Nov-11 21:30N 37°08' W 008°32'0 0.0
2017-Nov-11 21:00N 37°08' W 008°32'0 0.0
2017-Nov-11 20:24N 37°08' W 008°32'0 0.0
2017-Nov-11 19:53N 37°08' W 008°32'0 0.0
2017-Nov-11 19:24N 37°08' W 008°32'0 0.0
2017-Nov-11 18:48N 37°08' W 008°32'0 0.0
2017-Nov-11 18:30N 37°08' W 008°32'0 0.0
2017-Nov-11 17:18N 37°08' W 008°32'0 0.0
2017-Nov-11 16:47N 37°08' W 008°32'0 0.0
2017-Nov-11 16:24N 37°08' W 008°32'0 0.0
2017-Nov-11 16:00N 37°08' W 008°32'0 0.0
2017-Nov-11 15:30N 37°08' W 008°32'0 0.0
2017-Nov-11 14:56N 37°08' W 008°32'0 0.0
2017-Nov-11 14:30N 37°08' W 008°32'0 0.0
2017-Nov-11 14:00N 37°08' W 008°32'0 0.0
2017-Nov-11 13:30N 37°08' W 008°32'0 0.0
2017-Nov-11 13:00N 37°08' W 008°32'0 0.0
2017-Nov-11 12:30N 37°08' W 008°32'0 0.0
2017-Nov-11 11:59N 37°08' W 008°32'0 0.0
2017-Nov-11 11:30N 37°08' W 008°32'0 0.0
2017-Nov-11 11:00N 37°08' W 008°32'0 0.0
2017-Nov-11 10:30N 37°08' W 008°32'0 0.0
2017-Nov-11 10:00N 37°08' W 008°32'0 0.0
2017-Nov-11 09:29N 37°08' W 008°32'0 0.0
2017-Nov-11 08:59N 37°08' W 008°32'0 0.0
2017-Nov-11 08:30N 37°08' W 008°32'0 0.0
2017-Nov-11 08:00N 37°08' W 008°32'0 0.0
2017-Nov-11 07:30N 37°08' W 008°32'0 0.0
2017-Nov-11 06:54N 37°08' W 008°32'0 0.0
2017-Nov-11 06:30N 37°08' W 008°32'0 0.0
2017-Nov-11 05:58N 37°08' W 008°32'0 0.0
2017-Nov-11 05:30N 37°08' W 008°32'0 0.0
2017-Nov-11 04:54N 37°08' W 008°32'0 0.0
2017-Nov-11 04:18N 37°08' W 008°32'0 0.0
2017-Nov-11 03:50N 37°08' W 008°32'0 0.0
2017-Nov-11 03:30N 37°08' W 008°32'0 0.0
2017-Nov-11 02:53N 37°08' W 008°32'0 0.0
2017-Nov-11 02:22N 37°08' W 008°32'0 0.0
2017-Nov-11 01:58N 37°08' W 008°32'0 0.0
2017-Nov-11 01:30N 37°08' W 008°32'0 0.0
2017-Nov-11 01:00N 37°08' W 008°32'0 0.0
2017-Nov-11 00:30N 37°08' W 008°32'0 0.0
2017-Nov-11 00:00N 37°08' W 008°32'0 0.0
2017-Nov-10 23:29N 37°08' W 008°32'0 0.0
2017-Nov-10 22:54N 37°08' W 008°32'0 0.0
2017-Nov-10 22:30N 37°08' W 008°32'0 0.0
2017-Nov-10 22:00N 37°08' W 008°32'0 0.0
2017-Nov-10 21:30N 37°08' W 008°32'0 0.0
2017-Nov-10 21:00N 37°08' W 008°32'0 0.0
2017-Nov-10 20:30N 37°08' W 008°32'0 0.0
2017-Nov-10 20:00N 37°08' W 008°32'0 0.0
2017-Nov-10 19:30N 37°08' W 008°32'0 0.0
2017-Nov-10 19:00N 37°08' W 008°32'0 0.0
2017-Nov-10 18:29N 37°08' W 008°32'0 0.0
2017-Nov-10 17:58N 37°08' W 008°32'0 0.0
2017-Nov-10 17:30N 37°08' W 008°32'0 0.0
2017-Nov-10 16:58N 37°08' W 008°32'0 0.0
2017-Nov-10 16:29N 37°08' W 008°32'0 0.0
2017-Nov-10 16:00N 37°08' W 008°32'0 0.0
2017-Nov-10 15:30N 37°08' W 008°32'0 0.0
2017-Nov-10 15:00N 37°08' W 008°32'0 0.0
2017-Nov-10 14:30N 37°08' W 008°32'0 0.0
2017-Nov-10 13:58N 37°08' W 008°32'0 0.0
2017-Nov-10 13:18N 37°08' W 008°32'0 0.0
2017-Nov-10 13:00N 37°08' W 008°32'0 0.0
2017-Nov-10 12:30N 37°08' W 008°32'0 0.0
2017-Nov-10 12:00N 37°08' W 008°32'0 0.0
2017-Nov-10 11:30N 37°08' W 008°32'0 0.0
2017-Nov-10 11:00N 37°08' W 008°32'0 0.0
2017-Nov-10 10:23N 37°08' W 008°32'0 0.0
2017-Nov-10 09:54N 37°08' W 008°32'0 0.0
2017-Nov-10 09:30N 37°08' W 008°32'0 0.0
2017-Nov-10 08:54N 37°08' W 008°32'0 0.0
2017-Nov-10 08:30N 37°08' W 008°32'0 0.0
2017-Nov-10 07:59N 37°08' W 008°32'0 0.0
2017-Nov-10 07:30N 37°08' W 008°32'0 0.0
2017-Nov-10 06:56N 37°08' W 008°32'0 0.0
2017-Nov-10 06:30N 37°08' W 008°32'0 0.0
2017-Nov-10 06:00N 37°08' W 008°32'0 0.0
2017-Nov-10 05:30N 37°08' W 008°32'0 0.0
2017-Nov-10 04:48N 37°08' W 008°32'0 0.0
2017-Nov-10 04:30N 37°08' W 008°32'0 0.0
2017-Nov-10 04:00N 37°08' W 008°32'0 0.0
2017-Nov-10 03:30N 37°08' W 008°32'0 0.0
2017-Nov-10 03:00N 37°08' W 008°32'0 0.0
2017-Nov-10 02:30N 37°08' W 008°32'0 0.0
2017-Nov-10 01:54N 37°08' W 008°32'0 0.0
2017-Nov-10 01:28N 37°08' W 008°32'0 0.0
2017-Nov-10 01:00N 37°08' W 008°32'0 0.0
2017-Nov-10 00:30N 37°08' W 008°32'  

Dump ship's entire track history